Řízení letového provozu České republiky  
Aktualizace dat:  17.11.2017 23:06:06 UTC English version
   METEO Zobrazení stránky:  17.11.2017 23:08:04 UTC  
vysvětlivky
METAR EDDB 172250Z 19004KT 160V220 9999 SCT046 02/01 Q1023 NOSIG=
METAR EDDC 172250Z 20006KT 9999 0900S R22/P2000N PRFG NSC M00/M00 Q1023=
METAR EDDE 172250Z 24008KT 7000 BKN003 02/02 Q1023=
METAR EDDF 172250Z 24004KT 2800 BR BKN004 05/05 Q1025 TEMPO 3000=
METAR EDDM 172250Z 21001KT 9999 FEW019 SCT045 BKN065 02/01 Q1024 NOSIG=
METAR EDDN 172250Z 08002KT 4000 BR BKN003 OVC004 03/03 Q1024=
METAR EDDP 172250Z 22005KT 9999 SCT023 BKN039 03/02 Q1023 NOSIG=
METAR EDDT 172250Z 24005KT 9999 FEW045 01/M00 Q1022=
METAR EDQM 171850Z VRB01KT 5000 BR BKN003 OVC011 03/02 Q1024=
METAR EPBY 172300Z 22007KT 7000 NSC M00/M00 Q1021 =
METAR EPGD 172300Z 23007KT 9999 FEW037 03/02 Q1018 =
METAR EPKK 172300Z 21003KT 1500 -RA BR SCT005 OVC010 04/04 Q1021 =
METAR EPKT 172300Z 30003KT 3400 BR FEW004 SCT005 BKN009 04/03 Q1022 =
METAR EPLL 172300Z 30005KT 270V010 1800 BR OVC002 03/02 Q1022 =
METAR EPPO 172300Z 23002KT 0900 R28/2000N FZFG NSC 00/00 Q1022 =
METAR EPRZ 172300Z 28005KT 2000 BR OVC003 04/04 Q1021 =
METAR EPWA 172300Z 31004KT 1200 R33/1300N BR OVC002 03/03 Q1021 TEMPO 0300 FG=
METAR EPWR 172300Z 29004KT 3000 BR BKN025 BKN032 01/01 Q1023 =
METAR LHBP 172300Z VRB03KT 5000 BR SCT043 BKN076 04/04 Q1021 NOSIG=
METAR LHSM 171545Z 36006KT 9999 BKN033 OVC040 05/01 Q1023=
SPECI LKCV 172241Z 23002KT 1500 BR VCFG SKC 01/00 Q1024 =
METAR COR LKKB 172200Z 23003KT 210V330 4000 MIFG BR NSC 02/02 Q1024 =
METAR LKKU NIL
METAR LKKV 172300Z VRB02KT 1100 R29/1900U BR SCT002 OVC005 02/02 Q1022=
METAR LKLN NIL
METAR LKMT 172300Z 01006KT 3000 BR FEW005 OVC009 04/04 Q1023 NOSIG=
METAR LKNA 172200Z 33005KT 6000 OVC009 03/03 Q1023=
METAR COR LKPD 172200Z 29004KT 7000 SCT004 BKN017 04/03 Q1024 =
SPECI LKPR 172304Z 22006KT 2400 BR FEW002 M01/M01 Q1023 RMK REG QNH 1019=
METAR LKTB 172300Z 32005KT 9000 BKN029 05/04 Q1023 NOSIG=
METAR LKVO NIL
METAR LOWI 172250Z AUTO 26002KT 9999 FEW011 BKN014 02/01 Q1024=
METAR LOWL 172250Z AUTO 27004KT 3900 -RA BR FEW006 OVC022 03/02 Q1024=
METAR LOWS 172250Z AUTO VRB01KT 6000 BKN060 02/01 Q1024=
METAR LOWW 172250Z 30010KT 9999 -RA FEW012 BKN017 05/03 Q1023 BECMG BKN014=
METAR LZIB 172300Z 32007KT 9999 FEW012 BKN051 06/03 Q1022=
METAR LZKZ 172300Z 01011KT 9999 -RA OVC034 05/03 Q1020=
METAR LZPP 172300Z AUTO 36008KT 6000 OVC019/// 05/03 Q1021=
METAR LZSL 172300Z 00000KT 2400 BR SCT005 OVC031 04/03 Q1020=
METAR LZTT 172300Z 23001KT 1100 R27/P2000N SN OVC002 00/M00 Q1020=
METAR LZZI 172300Z 09003KT 6000 OVC019 04/03 Q1021=